createdAt,value
2023-05-20T00:00:38.115Z,9.8078
2023-05-20T00:01:40.491Z,9.8483
2023-05-20T00:02:42.019Z,9.8205
2023-05-20T00:03:43.817Z,9.8247
2023-05-20T00:04:44.253Z,9.7838
2023-05-20T00:05:45.697Z,9.7683
2023-05-20T00:06:47.952Z,9.6979
2023-05-20T00:08:49.124Z,9.7353
2023-05-20T00:09:50.921Z,9.7218
2023-05-20T00:14:54.627Z,9.6996
2023-05-20T00:15:53.568Z,9.7084
2023-05-20T00:17:57.311Z,9.7092
2023-05-20T00:19:58.913Z,9.6463
2023-05-20T00:20:59.024Z,9.5886
2023-05-20T00:22:00.069Z,9.6092
2023-05-20T00:23:01.996Z,9.5881
2023-05-20T00:24:04.332Z,9.5545
2023-05-20T00:25:06.437Z,9.5890
2023-05-20T00:26:07.111Z,9.5247
2023-05-20T00:27:08.521Z,9.5626
2023-05-20T00:28:09.386Z,9.5292
2023-05-20T00:29:10.380Z,9.5319
2023-05-20T00:30:12.718Z,9.5777
2023-05-20T00:31:14.270Z,9.5594
2023-05-20T00:33:14.194Z,9.5809
2023-05-20T00:34:15.869Z,9.5143
2023-05-20T00:35:17.557Z,9.5187
2023-05-20T00:36:19.387Z,9.4683
2023-05-20T00:37:20.218Z,9.4909
2023-05-20T00:38:20.626Z,9.4600
2023-05-20T00:39:22.240Z,9.3866
2023-05-20T00:43:26.562Z,9.1489
2023-05-20T00:44:28.460Z,9.1609
2023-05-20T00:45:28.881Z,9.0965
2023-05-20T00:46:31.011Z,9.0083
2023-05-20T00:47:32.268Z,8.7307
2023-05-20T00:48:33.554Z,8.8632
2023-05-20T00:49:34.934Z,9.0092
2023-05-20T00:50:37.242Z,8.8622
2023-05-20T00:51:37.738Z,8.8195
2023-05-20T00:53:39.682Z,8.7573
2023-05-20T00:54:41.512Z,8.8233
2023-05-20T00:56:41.704Z,8.7147
2023-05-20T00:57:42.966Z,8.5964
2023-05-20T00:58:44.938Z,8.5428
2023-05-20T00:59:46.577Z,8.3704
2023-05-20T01:00:48.423Z,8.3282
2023-05-20T01:01:50.342Z,8.2814
2023-05-20T01:02:51.198Z,8.3889
2023-05-20T01:03:52.699Z,8.4042
2023-05-20T01:04:53.895Z,8.3588
2023-05-20T01:05:54.893Z,8.1342
2023-05-20T01:06:56.999Z,8.1984
2023-05-20T01:07:58.819Z,8.1950
2023-05-20T01:09:00.621Z,8.0149
2023-05-20T01:10:02.717Z,8.0998
2023-05-20T01:12:04.586Z,8.1378
2023-05-20T01:13:06.588Z,8.0787
2023-05-20T01:14:07.457Z,8.0228
2023-05-20T01:15:09.546Z,7.9548
2023-05-20T01:16:10.334Z,7.9714
2023-05-20T01:17:10.362Z,8.1193
2023-05-20T01:19:13.291Z,7.7157
2023-05-20T01:20:14.936Z,8.1714
2023-05-20T01:21:16.942Z,8.2054
2023-05-20T01:22:18.646Z,8.3388
2023-05-20T01:23:20.174Z,8.2387
2023-05-20T01:24:22.215Z,8.2155
2023-05-20T01:25:23.640Z,8.2392
2023-05-20T01:26:25.225Z,8.1373
2023-05-20T01:28:26.605Z,7.9265
2023-05-20T01:29:29.628Z,7.9090
2023-05-20T01:30:29.986Z,7.8685
2023-05-20T01:31:31.656Z,7.9241
2023-05-20T01:32:33.260Z,7.8870
2023-05-20T01:33:34.528Z,7.9479
2023-05-20T01:34:35.999Z,7.9445
2023-05-20T01:35:37.240Z,7.8232
2023-05-20T01:36:38.271Z,7.8786
2023-05-20T01:37:40.643Z,7.8617
2023-05-20T01:38:41.258Z,7.6527
2023-05-20T01:39:42.340Z,7.8095
2023-05-20T01:40:43.856Z,7.8760
2023-05-20T01:41:45.730Z,7.8842
2023-05-20T01:42:47.108Z,7.7451
2023-05-20T01:44:49.388Z,7.5912
2023-05-20T01:45:49.864Z,7.7544
2023-05-20T01:47:51.350Z,7.8083
2023-05-20T01:48:52.856Z,7.6584
2023-05-20T01:49:53.333Z,7.8567
2023-05-20T01:50:55.433Z,7.9406
2023-05-20T01:51:56.953Z,7.9651
2023-05-20T01:52:59.004Z,7.8449
2023-05-20T01:54:00.069Z,7.7377
2023-05-20T01:55:00.690Z,7.5781
2023-05-20T01:56:03.058Z,7.5176
2023-05-20T01:58:05.025Z,7.6420
2023-05-20T01:59:05.624Z,7.7300
2023-05-20T02:00:06.988Z,7.6948
2023-05-20T02:01:07.067Z,7.6884
2023-05-20T02:02:09.503Z,7.7860
2023-05-20T02:03:10.835Z,7.6997
2023-05-20T02:04:12.024Z,7.5949
2023-05-20T02:05:12.936Z,7.6548
2023-05-20T02:06:13.402Z,7.6648
2023-05-20T02:07:13.591Z,7.6101
2023-05-20T02:08:13.800Z,7.6069
2023-05-20T02:10:14.319Z,7.5802
2023-05-20T02:11:15.231Z,7.6280
2023-05-20T02:12:16.285Z,7.6178
2023-05-20T02:13:17.678Z,7.5716
2023-05-20T02:14:19.871Z,7.7853
2023-05-20T02:15:21.040Z,7.6236
2023-05-20T02:16:21.588Z,7.6263
2023-05-20T02:17:22.732Z,7.5880
2023-05-20T02:18:24.819Z,7.4446
2023-05-20T02:19:26.631Z,7.4615
2023-05-20T02:22:29.911Z,7.7311
2023-05-20T02:25:30.953Z,7.7679
2023-05-20T02:26:31.561Z,7.8439
2023-05-20T02:28:35.649Z,7.8317
2023-05-20T02:29:36.899Z,7.8812
2023-05-20T02:30:38.225Z,7.8121
2023-05-20T02:31:38.342Z,7.8277
2023-05-20T02:32:39.392Z,7.7584
2023-05-20T02:33:40.443Z,7.8083
2023-05-20T02:37:44.898Z,7.4978
2023-05-20T02:38:46.005Z,7.5276
2023-05-20T02:39:47.036Z,7.5855
2023-05-20T02:40:49.308Z,7.5807
2023-05-20T02:41:50.274Z,7.6390
2023-05-20T02:42:50.703Z,7.6388
2023-05-20T02:44:51.337Z,7.7318
2023-05-20T02:45:53.925Z,7.7480
2023-05-20T02:52:00.541Z,7.6839
2023-05-20T02:53:01.051Z,7.7421
2023-05-20T02:54:03.062Z,7.7261
2023-05-20T02:55:04.903Z,7.6848
2023-05-20T02:56:06.225Z,7.6557
2023-05-20T02:57:07.898Z,7.7394
2023-05-20T02:58:09.262Z,7.7671
2023-05-20T02:59:11.919Z,7.7764
2023-05-20T03:00:14.274Z,7.7920
2023-05-20T03:01:14.655Z,7.8101
2023-05-20T03:02:16.835Z,7.7339
2023-05-20T03:03:19.068Z,7.7503
2023-05-20T03:04:20.234Z,7.6839
2023-05-20T03:05:21.637Z,7.6785
2023-05-20T03:06:23.551Z,7.6446
2023-05-20T03:07:24.020Z,7.6817
2023-05-20T03:08:24.853Z,7.7339
2023-05-20T03:09:26.245Z,7.7094
2023-05-20T03:10:26.610Z,7.7096
2023-05-20T03:11:28.413Z,7.7828
2023-05-20T03:12:29.791Z,7.8237
2023-05-20T03:13:30.738Z,7.8028
2023-05-20T03:14:32.382Z,7.7859
2023-05-20T03:15:34.582Z,7.8342
2023-05-20T03:16:34.725Z,7.8040
2023-05-20T03:18:37.725Z,7.8045
2023-05-20T03:19:39.008Z,7.8093
2023-05-20T03:20:39.851Z,7.8271
2023-05-20T03:21:41.124Z,7.8871
2023-05-20T03:22:43.012Z,7.8938
2023-05-20T03:23:44.796Z,7.8619
2023-05-20T03:24:46.331Z,7.8462
2023-05-20T03:25:47.616Z,7.8651
2023-05-20T03:26:47.847Z,7.9187
2023-05-20T03:27:49.734Z,7.9314
2023-05-20T03:28:51.357Z,7.9466
2023-05-20T03:29:53.091Z,7.9905
2023-05-20T03:30:53.705Z,7.9137
2023-05-20T03:31:55.259Z,7.9337
2023-05-20T03:32:56.559Z,7.9433
2023-05-20T03:33:58.028Z,7.9464
2023-05-20T03:36:00.581Z,7.9231
2023-05-20T03:37:02.693Z,7.8698
2023-05-20T03:45:09.765Z,8.0722
2023-05-20T03:46:09.822Z,8.1041
2023-05-20T03:48:11.483Z,7.9612
2023-05-20T03:49:11.995Z,7.8306
2023-05-20T03:50:14.015Z,7.9709
2023-05-20T03:52:15.448Z,7.9431
2023-05-20T03:53:17.590Z,7.9346
2023-05-20T03:55:18.802Z,8.0110
2023-05-20T03:56:20.719Z,7.9360
2023-05-20T03:57:22.011Z,8.0443
2023-05-20T03:58:23.391Z,7.9149
2023-05-20T03:59:23.684Z,8.0255
2023-05-20T04:00:25.800Z,8.0700
2023-05-20T04:01:26.944Z,8.0295
2023-05-20T04:02:29.860Z,7.9692
2023-05-20T04:03:31.514Z,7.9693
2023-05-20T04:04:32.330Z,7.9450
2023-05-20T04:06:33.851Z,7.9305
2023-05-20T04:07:34.887Z,7.9530
2023-05-20T04:08:36.123Z,7.9518
2023-05-20T04:09:37.542Z,7.8919
2023-05-20T04:11:37.765Z,8.1359
2023-05-20T04:12:37.968Z,8.2286
2023-05-20T04:13:39.322Z,8.2377
2023-05-20T04:15:40.263Z,8.2349
2023-05-20T04:18:43.815Z,8.0450
2023-05-20T04:19:44.187Z,7.9847
2023-05-20T04:20:45.606Z,7.9609
2023-05-20T04:21:47.684Z,8.0105
2023-05-20T04:25:49.757Z,8.2221
2023-05-20T04:26:50.656Z,8.2751
2023-05-20T04:28:55.569Z,8.3049
2023-05-20T04:29:56.505Z,8.2957
2023-05-20T04:31:57.418Z,8.2974
2023-05-20T04:32:58.614Z,8.3055
2023-05-20T04:33:59.119Z,8.4969
2023-05-20T04:35:01.612Z,8.5421
2023-05-20T04:36:03.681Z,8.4434
2023-05-20T04:42:11.454Z,8.8662
2023-05-20T04:43:12.037Z,8.9522
2023-05-20T04:44:12.486Z,8.9974
2023-05-20T04:45:13.219Z,9.0624
2023-05-20T04:46:14.512Z,9.1748
2023-05-20T04:47:14.421Z,9.1829
2023-05-20T04:48:16.147Z,9.2797
2023-05-20T04:49:16.420Z,9.3414
2023-05-20T04:50:18.756Z,9.3308
2023-05-20T04:51:20.413Z,9.4535
2023-05-20T04:53:20.411Z,9.5140
2023-05-20T04:54:20.641Z,9.5627
2023-05-20T04:55:22.831Z,9.6220
2023-05-20T04:56:23.450Z,9.6982
2023-05-20T04:57:24.515Z,9.7616
2023-05-20T04:58:25.748Z,9.7983
2023-05-20T04:59:28.353Z,9.9258
2023-05-20T05:00:30.709Z,10.0363
2023-05-20T05:01:31.996Z,10.1048
2023-05-20T05:02:33.003Z,10.0851
2023-05-20T05:03:36.582Z,10.1983
2023-05-20T05:04:35.954Z,10.1317
2023-05-20T05:06:37.514Z,10.0008
2023-05-20T05:07:38.088Z,10.0395
2023-05-20T05:08:37.841Z,10.0947
2023-05-20T05:09:38.054Z,10.2523
2023-05-20T05:10:38.996Z,10.3710
2023-05-20T05:11:39.776Z,10.4303
2023-05-20T05:12:40.038Z,10.5357
2023-05-20T05:13:41.485Z,10.4809
2023-05-20T05:14:41.858Z,10.5014
2023-05-20T05:15:43.260Z,10.5583
2023-05-20T05:16:44.814Z,10.5375
2023-05-20T05:17:46.217Z,10.6286
2023-05-20T05:18:48.046Z,10.6196
2023-05-20T05:19:49.494Z,10.6089
2023-05-20T05:20:50.756Z,10.6555
2023-05-20T05:21:52.726Z,10.8065
2023-05-20T05:22:54.083Z,10.8759
2023-05-20T05:23:57.527Z,10.9044
2023-05-20T05:26:00.405Z,10.8822
2023-05-20T05:27:02.268Z,10.8277
2023-05-20T05:28:03.672Z,10.9360
2023-05-20T05:29:04.497Z,10.8681
2023-05-20T05:30:05.226Z,10.8811
2023-05-20T05:31:05.878Z,11.0271
2023-05-20T05:32:07.290Z,11.0245
2023-05-20T05:33:08.018Z,11.0895
2023-05-20T05:34:09.554Z,11.1672
2023-05-20T05:35:11.362Z,11.0755
2023-05-20T05:36:12.614Z,11.1502
2023-05-20T05:37:14.013Z,11.1822
2023-05-20T05:38:15.140Z,11.0578
2023-05-20T05:39:16.320Z,11.0830
2023-05-20T05:40:17.008Z,11.0401
2023-05-20T05:44:18.188Z,11.1952
2023-05-20T05:45:19.016Z,11.3594
2023-05-20T05:46:20.187Z,11.3537
2023-05-20T05:48:24.900Z,11.6387
2023-05-20T05:49:25.428Z,11.8334
2023-05-20T05:51:25.719Z,11.6052
2023-05-20T05:52:25.988Z,11.4513
2023-05-20T05:53:26.635Z,11.4742
2023-05-20T05:54:28.200Z,11.6316
2023-05-20T05:55:30.108Z,11.5551
2023-05-20T05:56:31.307Z,11.5108
2023-05-20T05:57:33.654Z,11.6523
2023-05-20T05:59:36.002Z,11.5837
2023-05-20T06:08:43.374Z,11.5411
2023-05-20T06:09:44.997Z,11.4796
2023-05-20T06:10:46.509Z,11.6042
2023-05-20T06:11:48.150Z,11.6930
2023-05-20T06:12:49.748Z,11.9376
2023-05-20T06:13:51.379Z,11.8473
2023-05-20T06:14:53.519Z,11.8146
2023-05-20T06:15:54.644Z,11.8135
2023-05-20T06:16:55.854Z,11.8491
2023-05-20T06:17:57.845Z,11.7121
2023-05-20T06:19:01.593Z,12.0616
2023-05-20T06:20:00.886Z,12.0857
2023-05-20T06:21:03.004Z,11.9283
2023-05-20T06:25:05.781Z,11.7930
2023-05-20T06:26:07.182Z,12.0423
2023-05-20T06:28:08.609Z,12.1244
2023-05-20T06:29:09.377Z,12.0578
2023-05-20T06:30:10.891Z,12.2133
2023-05-20T06:31:11.698Z,12.2190
2023-05-20T06:32:13.512Z,12.0924
2023-05-20T06:33:15.747Z,12.1327
2023-05-20T06:34:16.789Z,12.0591
2023-05-20T06:35:18.749Z,12.1794
2023-05-20T06:36:20.372Z,12.4026
2023-05-20T06:38:21.119Z,12.2583
2023-05-20T06:39:23.323Z,12.3978
2023-05-20T06:40:24.462Z,12.5449
2023-05-20T06:41:25.717Z,12.8636
2023-05-20T06:42:26.625Z,12.8339
2023-05-20T06:51:36.802Z,12.8239
2023-05-20T06:52:37.595Z,12.4498
2023-05-20T06:53:38.213Z,12.5016
2023-05-20T06:54:39.695Z,12.4125
2023-05-20T06:55:42.121Z,12.4967
2023-05-20T06:56:43.014Z,12.2639
2023-05-20T06:57:45.171Z,12.2408
2023-05-20T06:58:45.558Z,12.3471
2023-05-20T07:03:51.771Z,12.1008
2023-05-20T07:04:51.976Z,12.0354
2023-05-20T07:05:52.944Z,11.9816
2023-05-20T07:06:55.672Z,12.0574
2023-05-20T07:07:57.840Z,12.1008
2023-05-20T07:09:00.077Z,12.1716
2023-05-20T07:10:02.210Z,12.2040
2023-05-20T07:12:04.663Z,12.2411
2023-05-20T07:13:05.780Z,12.2321
2023-05-20T07:14:06.395Z,12.4636
2023-05-20T07:15:08.134Z,12.4664
2023-05-20T07:16:09.518Z,12.4512
2023-05-20T07:17:11.393Z,12.6397
2023-05-20T07:18:13.157Z,12.8466
2023-05-20T07:19:13.432Z,12.6338
2023-05-20T07:20:14.169Z,12.7580
2023-05-20T07:21:15.241Z,12.8851
2023-05-20T07:22:16.575Z,13.2668
2023-05-20T07:23:17.725Z,13.3061
2023-05-20T07:24:20.076Z,13.5462
2023-05-20T07:25:21.349Z,13.4098
2023-05-20T07:27:22.420Z,13.4502
2023-05-20T07:28:23.209Z,13.2986
2023-05-20T07:30:24.416Z,13.3787
2023-05-20T07:31:24.608Z,13.0542
2023-05-20T07:34:28.951Z,13.2912
2023-05-20T07:35:30.548Z,13.3369
2023-05-20T07:36:30.999Z,13.4505
2023-05-20T07:37:31.176Z,13.8939
2023-05-20T07:38:32.449Z,13.8495
2023-05-20T07:39:33.425Z,13.3488
2023-05-20T07:41:32.972Z,13.5913
2023-05-20T07:42:35.155Z,13.5999
2023-05-20T07:43:37.663Z,13.3171
2023-05-20T07:45:38.978Z,13.2470
2023-05-20T07:46:39.571Z,13.5397
2023-05-20T07:47:41.302Z,13.3768
2023-05-20T07:48:41.618Z,13.3668
2023-05-20T07:49:41.900Z,13.2797
2023-05-20T07:50:42.823Z,13.2364
2023-05-20T07:51:45.549Z,13.2472
2023-05-20T07:52:56.094Z,13.6237
2023-05-20T07:57:21.122Z,13.2648
2023-05-20T07:58:21.808Z,13.4525
2023-05-20T07:59:22.819Z,13.7279
2023-05-20T08:00:24.622Z,13.8845
2023-05-20T08:01:25.317Z,14.0920
2023-05-20T08:02:26.455Z,13.7746
2023-05-20T08:03:28.091Z,13.9867
2023-05-20T08:04:28.761Z,13.7799
2023-05-20T08:05:30.181Z,13.7147
2023-05-20T08:06:31.412Z,13.8373
2023-05-20T08:07:39.420Z,13.8175
2023-05-20T08:12:38.774Z,13.4742
2023-05-20T08:13:39.911Z,13.8915
2023-05-20T08:18:43.059Z,13.7559
2023-05-20T08:19:44.757Z,13.9988
2023-05-20T08:21:45.202Z,14.6748
2023-05-20T08:22:46.657Z,14.1765
2023-05-20T08:23:47.876Z,14.6340
2023-05-20T08:24:49.537Z,14.3396
2023-05-20T08:25:51.447Z,14.4256
2023-05-20T08:26:52.976Z,13.8223
2023-05-20T08:27:53.615Z,14.0090
2023-05-20T08:28:54.528Z,14.4356
2023-05-20T08:29:54.791Z,14.6071
2023-05-20T08:30:57.021Z,14.4512
2023-05-20T08:31:57.850Z,14.2111
2023-05-20T08:32:57.997Z,14.3296
2023-05-20T08:33:59.157Z,14.3460
2023-05-20T08:41:04.188Z,14.0313
2023-05-20T08:42:03.784Z,13.8857
2023-05-20T08:43:07.311Z,13.6874
2023-05-20T08:44:07.685Z,13.5581
2023-05-20T08:47:12.063Z,13.9050
2023-05-20T08:48:12.695Z,14.0121
2023-05-20T08:49:14.010Z,14.4120
2023-05-20T08:50:15.232Z,14.7464
2023-05-20T08:55:03.106Z,14.2612
2023-05-20T08:56:03.760Z,14.1180
2023-05-20T08:57:03.662Z,13.8379
2023-05-20T08:58:03.954Z,13.6498
2023-05-20T08:59:06.079Z,13.6266
2023-05-20T09:00:07.694Z,13.6874
2023-05-20T09:01:09.242Z,13.5758
2023-05-20T09:02:09.980Z,13.2907
2023-05-20T09:03:10.745Z,13.2445
2023-05-20T09:04:11.828Z,13.2921
2023-05-20T09:05:12.731Z,13.3201
2023-05-20T09:06:13.672Z,13.2154
2023-05-20T09:07:14.439Z,13.5201
2023-05-20T09:08:14.947Z,13.8842
2023-05-20T09:09:15.938Z,14.0137
2023-05-20T09:10:16.700Z,13.9792
2023-05-20T09:17:26.551Z,14.5705
2023-05-20T09:18:26.549Z,14.3911
2023-05-20T09:19:29.387Z,14.5366
2023-05-20T09:20:29.934Z,14.2457
2023-05-20T09:23:32.748Z,13.9850
2023-05-20T09:24:35.416Z,13.8971
2023-05-20T09:26:35.835Z,14.1114
2023-05-20T09:27:38.188Z,14.1268
2023-05-20T09:29:38.675Z,13.9857
2023-05-20T09:30:39.585Z,13.9048
2023-05-20T09:35:45.045Z,14.3402
2023-05-20T09:36:46.501Z,14.4013
2023-05-20T09:37:46.750Z,14.9283
2023-05-20T09:38:47.907Z,15.3184
2023-05-20T09:39:48.908Z,16.1729
2023-05-20T09:41:49.659Z,16.1274
2023-05-20T09:42:50.484Z,16.7337
2023-05-20T09:43:51.205Z,16.6597
2023-05-20T09:44:53.904Z,15.8953
2023-05-20T09:45:55.223Z,15.7099
2023-05-20T09:48:58.642Z,16.7531
2023-05-20T09:49:59.137Z,15.6169
2023-05-20T09:50:59.424Z,15.8737
2023-05-20T09:52:00.254Z,16.1402
2023-05-20T09:53:01.221Z,16.1218
2023-05-20T09:54:03.225Z,16.9651
2023-05-20T09:55:03.409Z,19.1843
2023-05-20T09:56:04.928Z,18.4422
2023-05-20T09:57:06.579Z,17.6961
2023-05-20T09:59:07.237Z,17.4644
2023-05-20T10:00:09.021Z,17.3662
2023-05-20T10:01:09.674Z,17.0633
2023-05-20T10:02:09.821Z,17.0857
2023-05-20T10:03:13.031Z,16.7873
2023-05-20T10:04:13.332Z,16.1726
2023-05-20T10:05:14.652Z,15.7443
2023-05-20T10:06:14.703Z,15.9434
2023-05-20T10:07:15.707Z,16.2600
2023-05-20T10:08:16.870Z,15.9628
2023-05-20T10:09:17.345Z,15.7621
2023-05-20T10:10:19.084Z,15.4395
2023-05-20T10:11:19.486Z,15.4665
2023-05-20T10:12:19.592Z,15.4911
2023-05-20T10:13:21.321Z,15.6431
2023-05-20T10:14:22.545Z,15.9741
2023-05-20T10:15:23.206Z,15.9253
2023-05-20T10:16:24.211Z,15.2548
2023-05-20T10:17:25.115Z,15.2675
2023-05-20T10:18:25.452Z,15.2563
2023-05-20T10:19:25.818Z,15.1803
2023-05-20T10:21:27.029Z,15.5093
2023-05-20T10:22:27.344Z,15.8809
2023-05-20T10:23:29.346Z,15.7208
2023-05-20T10:24:31.209Z,16.3560
2023-05-20T10:25:33.689Z,16.4680
2023-05-20T10:26:33.542Z,15.7801
2023-05-20T10:27:34.291Z,15.7420
2023-05-20T10:28:35.461Z,14.9346
2023-05-20T10:29:37.274Z,14.9965
2023-05-20T10:30:41.547Z,15.3149
2023-05-20T10:31:42.432Z,15.6829
2023-05-20T10:33:45.736Z,15.0293
2023-05-20T10:35:46.143Z,15.3554
2023-05-20T10:38:46.198Z,15.4311
2023-05-20T10:39:48.567Z,15.6009
2023-05-20T10:40:48.988Z,15.9258
2023-05-20T10:41:49.182Z,15.8456
2023-05-20T10:42:49.607Z,16.3834
2023-05-20T10:43:51.271Z,16.2062
2023-05-20T10:44:52.559Z,15.4647
2023-05-20T10:45:53.611Z,15.3501
2023-05-20T10:47:55.378Z,15.0212
2023-05-20T10:48:56.453Z,15.2264
2023-05-20T10:49:57.773Z,15.3251
2023-05-20T10:50:59.549Z,15.3011
2023-05-20T10:52:01.022Z,15.4245
2023-05-20T10:53:03.894Z,15.4855
2023-05-20T10:55:06.368Z,15.8713
2023-05-20T10:58:06.930Z,16.2969
2023-05-20T10:59:07.197Z,16.2520
2023-05-20T11:00:09.710Z,15.9978
2023-05-20T11:01:12.182Z,15.5612
2023-05-20T11:02:13.904Z,16.2889
2023-05-20T11:03:16.626Z,16.3822
2023-05-20T11:04:17.178Z,16.4904
2023-05-20T11:05:17.457Z,16.3480
2023-05-20T11:06:18.620Z,16.6347
2023-05-20T11:07:19.598Z,16.3265
2023-05-20T11:08:29.126Z,16.2121
2023-05-20T11:09:22.650Z,16.0610
2023-05-20T11:16:26.087Z,16.7995
2023-05-20T11:22:28.146Z,17.4233
2023-05-20T11:23:30.423Z,17.0082
2023-05-20T11:24:31.716Z,16.2616
2023-05-20T11:31:06.092Z,16.4255
2023-05-20T11:32:08.346Z,16.9482
2023-05-20T11:33:09.389Z,16.7997
2023-05-20T11:34:09.735Z,17.4837
2023-05-20T11:35:10.550Z,17.2350
2023-05-20T11:36:26.385Z,18.3013
2023-05-20T11:39:44.065Z,18.2861
2023-05-20T11:40:50.617Z,17.4297
2023-05-20T11:41:47.449Z,17.4016
2023-05-20T11:42:47.795Z,17.5715
2023-05-20T11:43:48.760Z,18.1073
2023-05-20T11:44:50.552Z,17.8192
2023-05-20T11:45:51.427Z,17.2924
2023-05-20T11:46:52.961Z,17.5444
2023-05-20T11:47:53.201Z,17.5930
2023-05-20T11:48:54.904Z,17.4254
2023-05-20T11:49:57.019Z,17.9921
2023-05-20T11:50:57.098Z,17.7901
2023-05-20T11:51:58.879Z,17.9233
2023-05-20T11:53:01.130Z,17.8462
2023-05-20T11:54:01.385Z,18.5471
2023-05-20T11:55:03.798Z,17.7329
2023-05-20T11:56:05.088Z,17.0569
2023-05-20T11:57:07.066Z,18.3306
2023-05-20T11:58:07.642Z,18.2504
2023-05-20T11:59:08.058Z,17.5340
2023-05-20T12:00:08.698Z,17.3310
2023-05-20T12:01:21.786Z,17.7832
2023-05-20T12:02:11.360Z,17.5584
2023-05-20T12:03:11.858Z,17.1655
2023-05-20T12:04:13.457Z,16.8021
2023-05-20T12:05:13.634Z,17.1151
2023-05-20T12:06:13.797Z,17.1445
2023-05-20T12:07:13.931Z,16.4354
2023-05-20T12:08:16.086Z,16.3715
2023-05-20T12:09:18.608Z,16.8222
2023-05-20T12:10:18.915Z,17.1671
2023-05-20T12:11:19.500Z,17.3777
2023-05-20T12:12:21.659Z,17.4207
2023-05-20T12:13:23.487Z,17.1921
2023-05-20T12:14:23.691Z,17.5285
2023-05-20T12:15:24.785Z,17.3166
2023-05-20T12:16:27.098Z,17.5651
2023-05-20T12:17:28.856Z,17.6957
2023-05-20T12:18:32.898Z,18.0679
2023-05-20T12:20:34.029Z,17.3541
2023-05-20T12:21:35.487Z,17.7301
2023-05-20T12:22:36.224Z,18.5923
2023-05-20T12:23:36.635Z,18.0418
2023-05-20T12:24:36.745Z,17.4387
2023-05-20T12:25:48.590Z,17.5010
2023-05-20T12:27:07.940Z,18.2184
2023-05-20T12:28:09.156Z,18.7013
2023-05-20T12:29:09.924Z,18.4298
2023-05-20T12:30:11.093Z,17.9685
2023-05-20T12:31:11.835Z,18.2224
2023-05-20T12:32:12.508Z,17.8322
2023-05-20T12:33:13.930Z,17.8563
2023-05-20T12:34:14.589Z,17.1167
2023-05-20T12:35:14.596Z,17.1059
2023-05-20T12:36:15.481Z,16.7049
2023-05-20T12:37:16.443Z,17.6659
2023-05-20T12:38:17.532Z,17.8906
2023-05-20T12:39:19.652Z,17.8353
2023-05-20T12:40:21.241Z,17.8772
2023-05-20T12:41:22.093Z,17.4954
2023-05-20T12:42:23.552Z,18.0832
2023-05-20T12:43:27.679Z,17.1332
2023-05-20T12:53:36.746Z,16.4394
2023-05-20T12:54:37.346Z,16.6125
2023-05-20T12:55:37.750Z,16.8789
2023-05-20T12:59:43.432Z,18.3774
2023-05-20T13:00:44.178Z,17.9583
2023-05-20T13:02:46.483Z,17.7131
2023-05-20T13:03:47.346Z,17.9825
2023-05-20T13:04:47.467Z,17.9271
2023-05-20T13:05:48.262Z,18.3413
2023-05-20T13:06:48.938Z,18.4392
2023-05-20T13:07:49.201Z,18.6626
2023-05-20T13:10:55.328Z,19.5702
2023-05-20T13:11:57.472Z,18.7745
2023-05-20T13:13:59.088Z,18.2925
2023-05-20T13:15:00.240Z,18.2132
2023-05-20T13:16:01.029Z,17.6530
2023-05-20T13:17:03.010Z,17.8126
2023-05-20T13:18:04.287Z,18.1159
2023-05-20T13:19:04.513Z,18.5020
2023-05-20T13:20:06.471Z,19.0640
2023-05-20T13:21:08.617Z,18.5269
2023-05-20T13:22:09.043Z,18.2285
2023-05-20T13:23:11.039Z,17.5313
2023-05-20T13:24:13.474Z,17.6191
2023-05-20T13:25:13.529Z,17.6557
2023-05-20T13:26:14.060Z,17.6713
2023-05-20T13:27:15.710Z,17.6338
2023-05-20T13:28:16.170Z,17.3451
2023-05-20T13:32:16.864Z,17.9016
2023-05-20T13:33:17.838Z,18.1306
2023-05-20T13:34:18.253Z,17.6748
2023-05-20T13:35:19.470Z,17.8496
2023-05-20T13:36:19.554Z,17.1053
2023-05-20T13:37:21.008Z,17.2637
2023-05-20T13:38:21.865Z,17.4672
2023-05-20T13:39:22.976Z,17.5224
2023-05-20T13:40:23.136Z,17.8700
2023-05-20T13:41:23.990Z,17.5708
2023-05-20T13:42:26.179Z,17.5643
2023-05-20T13:43:26.757Z,17.9405
2023-05-20T13:44:26.861Z,18.0982
2023-05-20T13:45:28.967Z,18.1939
2023-05-20T13:46:30.219Z,17.7284
2023-05-20T13:47:32.317Z,18.5487
2023-05-20T13:48:32.673Z,19.6081
2023-05-20T13:49:35.691Z,18.2839
2023-05-20T13:50:35.987Z,18.9245
2023-05-20T13:51:37.274Z,19.8058
2023-05-20T13:52:38.481Z,18.9088
2023-05-20T13:53:38.689Z,19.3302
2023-05-20T13:54:40.572Z,19.8938
2023-05-20T13:55:41.808Z,20.6123
2023-05-20T13:56:42.449Z,18.6049
2023-05-20T13:57:43.189Z,19.2205
2023-05-20T13:58:43.527Z,19.7228
2023-05-20T13:59:44.069Z,19.8023
2023-05-20T14:00:47.192Z,19.0725
2023-05-20T14:01:48.600Z,18.4306
2023-05-20T14:02:50.508Z,17.5052
2023-05-20T14:04:50.949Z,18.8200
2023-05-20T14:05:53.839Z,18.7339
2023-05-20T14:06:54.071Z,18.9244
2023-05-20T14:07:56.265Z,18.5334
2023-05-20T14:08:57.858Z,17.9239
2023-05-20T14:09:58.756Z,18.2994
2023-05-20T14:10:59.462Z,18.0191
2023-05-20T14:12:02.107Z,17.8043
2023-05-20T14:14:02.420Z,17.8797
2023-05-20T14:15:05.139Z,18.3422
2023-05-20T14:16:05.913Z,18.0580
2023-05-20T14:17:07.441Z,18.0897
2023-05-20T14:18:09.423Z,17.4234
2023-05-20T14:19:09.549Z,17.6401
2023-05-20T14:21:11.354Z,17.6799
2023-05-20T14:28:17.904Z,17.5958
2023-05-20T14:29:19.059Z,17.3470
2023-05-20T14:31:21.707Z,17.4695
2023-05-20T14:32:22.445Z,17.2705
2023-05-20T14:33:24.316Z,17.4351
2023-05-20T14:34:26.115Z,17.6131
2023-05-20T14:35:27.335Z,17.7900
2023-05-20T14:37:28.090Z,17.6484
2023-05-20T14:39:30.327Z,17.4345
2023-05-20T14:40:31.657Z,17.4041
2023-05-20T14:41:33.215Z,18.0356
2023-05-20T14:42:33.863Z,17.7286
2023-05-20T14:43:34.935Z,17.5264
2023-05-20T14:44:35.976Z,17.3507
2023-05-20T14:45:36.941Z,16.9363
2023-05-20T14:48:39.128Z,16.8624
2023-05-20T14:49:39.689Z,16.8930
2023-05-20T14:51:40.347Z,17.1716
2023-05-20T14:52:40.911Z,16.9406
2023-05-20T14:53:40.401Z,17.1196
2023-05-20T14:54:42.777Z,17.2460
2023-05-20T14:55:43.728Z,17.3893
2023-05-20T14:56:44.779Z,17.2194
2023-05-20T14:57:45.658Z,17.1220
2023-05-20T14:58:46.336Z,17.0618
2023-05-20T14:59:47.563Z,17.4858
2023-05-20T15:00:49.126Z,17.2889
2023-05-20T15:01:50.234Z,17.3104
2023-05-20T15:02:50.374Z,17.4252
2023-05-20T15:03:50.530Z,17.5101
2023-05-20T15:04:51.061Z,17.4927
2023-05-20T15:05:51.221Z,17.3897
2023-05-20T15:07:55.517Z,17.8235
2023-05-20T15:08:56.387Z,17.5757
2023-05-20T15:09:57.005Z,17.4971
2023-05-20T15:10:59.115Z,17.7326
2023-05-20T15:12:01.100Z,17.4565
2023-05-20T15:13:01.636Z,17.4799
2023-05-20T15:14:03.318Z,17.4962
2023-05-20T15:15:05.487Z,17.9239
2023-05-20T15:16:06.432Z,18.0205
2023-05-20T15:17:08.313Z,18.0508
2023-05-20T15:18:08.830Z,17.9790
2023-05-20T15:19:08.993Z,17.3798
2023-05-20T15:20:09.654Z,17.7261
2023-05-20T15:21:09.787Z,17.8855
2023-05-20T15:22:10.097Z,17.4925
2023-05-20T15:23:10.733Z,17.4809
2023-05-20T15:24:11.615Z,17.6371
2023-05-20T15:25:12.181Z,17.6586
2023-05-20T15:26:14.814Z,17.7235
2023-05-20T15:27:15.527Z,18.1085
2023-05-20T15:28:17.571Z,18.0552
2023-05-20T15:29:18.905Z,17.6989
2023-05-20T15:30:19.599Z,17.7719
2023-05-20T15:31:19.862Z,17.6110
2023-05-20T15:32:21.863Z,17.5886
2023-05-20T15:33:22.397Z,17.3374
2023-05-20T15:34:22.831Z,17.2541
2023-05-20T15:35:23.056Z,17.4119
2023-05-20T15:36:23.591Z,17.3908
2023-05-20T15:37:24.761Z,17.4484
2023-05-20T15:38:25.204Z,17.6884
2023-05-20T15:39:25.270Z,17.5817
2023-05-20T15:40:25.939Z,17.9305
2023-05-20T15:41:26.919Z,17.3841
2023-05-20T15:42:28.628Z,17.4048
2023-05-20T15:43:28.625Z,17.4373
2023-05-20T15:44:29.124Z,17.9050
2023-05-20T15:45:30.696Z,17.9073
2023-05-20T15:46:33.115Z,17.2868
2023-05-20T15:47:34.304Z,17.1069
2023-05-20T15:48:36.345Z,17.0660
2023-05-20T15:50:37.888Z,17.2568
2023-05-20T15:51:38.311Z,17.3374
2023-05-20T15:52:38.337Z,17.0420
2023-05-20T15:53:40.906Z,17.2520
2023-05-20T15:54:41.753Z,17.1898
2023-05-20T15:55:44.981Z,16.8917
2023-05-20T15:56:45.078Z,16.8268
2023-05-20T15:57:46.663Z,16.8361
2023-05-20T15:58:47.170Z,16.8863
2023-05-20T15:59:47.538Z,17.1895